createdAt,value
2023-03-12T00:00:54.075Z,8.00
2023-03-12T00:06:11.292Z,10.50
2023-03-12T00:11:17.976Z,8.40
2023-03-12T00:16:22.177Z,8.60
2023-03-12T00:21:24.729Z,8.10
2023-03-12T00:26:26.918Z,12.30
2023-03-12T00:31:32.350Z,3.80
2023-03-12T00:36:34.359Z,9.40
2023-03-12T00:41:36.160Z,4.30
2023-03-12T00:46:38.037Z,8.20
2023-03-12T00:51:39.895Z,5.40
2023-03-12T00:56:41.649Z,6.10
2023-03-12T01:01:43.847Z,3.30
2023-03-12T01:06:45.715Z,5.70
2023-03-12T01:11:47.385Z,9.40
2023-03-12T01:16:50.865Z,8.00
2023-03-12T01:21:54.213Z,5.50
2023-03-12T01:26:56.201Z,4.80
2023-03-12T01:31:57.981Z,5.40
2023-03-12T01:36:59.649Z,7.50
2023-03-12T01:42:01.835Z,6.60
2023-03-12T01:47:03.600Z,9.00
2023-03-12T01:52:12.083Z,8.80
2023-03-12T01:57:51.899Z,6.80
2023-03-12T02:03:00.113Z,6.90
2023-03-12T02:08:01.809Z,11.40
2023-03-12T02:13:03.519Z,8.80
2023-03-12T02:18:09.132Z,6.20
2023-03-12T02:23:21.265Z,7.00
2023-03-12T02:28:29.102Z,7.50
2023-03-12T02:33:30.741Z,8.50
2023-03-12T02:38:41.833Z,6.80
2023-03-12T02:44:12.449Z,8.20
2023-03-12T02:49:16.572Z,7.40
2023-03-12T02:54:22.593Z,7.30
2023-03-12T02:59:28.266Z,10.50
2023-03-12T03:04:34.437Z,7.20
2023-03-12T03:09:36.236Z,5.40
2023-03-12T03:14:38.000Z,4.90
2023-03-12T03:19:39.707Z,4.40
2023-03-12T03:24:41.751Z,4.80
2023-03-12T03:29:46.095Z,4.20
2023-03-12T03:34:47.888Z,4.80
2023-03-12T03:39:49.729Z,2.50
2023-03-12T03:44:51.326Z,4.60
2023-03-12T03:49:52.979Z,2.50
2023-03-12T03:54:56.597Z,3.90
2023-03-12T04:00:03.516Z,3.70
2023-03-12T04:05:06.611Z,2.00
2023-03-12T04:10:09.697Z,1.10
2023-03-12T04:15:11.471Z,3.20
2023-03-12T04:20:14.015Z,2.00
2023-03-12T04:25:16.045Z,1.10
2023-03-12T04:30:17.847Z,2.70
2023-03-12T04:35:20.529Z,1.50
2023-03-12T04:40:22.396Z,1.80
2023-03-12T04:45:24.177Z,1.40
2023-03-12T04:50:25.949Z,3.80
2023-03-12T04:55:27.628Z,2.10
2023-03-12T05:00:29.784Z,2.00
2023-03-12T05:05:31.690Z,3.30
2023-03-12T05:10:34.190Z,5.00
2023-03-12T05:15:37.089Z,3.10
2023-03-12T05:20:39.886Z,1.10
2023-03-12T05:25:41.550Z,2.20
2023-03-12T05:30:43.242Z,1.10
2023-03-12T05:35:44.916Z,3.90
2023-03-12T05:40:55.501Z,5.30
2023-03-12T05:46:04.808Z,4.80
2023-03-12T05:51:06.916Z,1.30
2023-03-12T05:56:14.262Z,1.50
2023-03-12T06:01:23.659Z,1.40
2023-03-12T06:06:25.757Z,1.90
2023-03-12T06:11:27.529Z,1.60
2023-03-12T06:16:29.654Z,2.40
2023-03-12T06:21:35.723Z,4.00
2023-03-12T06:26:38.073Z,1.20
2023-03-12T06:31:41.613Z,1.10
2023-03-12T06:36:44.184Z,1.00
2023-03-12T06:41:45.878Z,0.90
2023-03-12T06:46:48.209Z,1.90
2023-03-12T06:51:50.661Z,1.40
2023-03-12T06:56:52.724Z,2.50
2023-03-12T07:01:54.959Z,6.00
2023-03-12T07:06:56.899Z,2.00
2023-03-12T07:11:58.667Z,1.80
2023-03-12T07:17:02.008Z,3.40
2023-03-12T07:22:04.077Z,3.00
2023-03-12T07:27:06.051Z,5.30
2023-03-12T07:32:08.078Z,2.60
2023-03-12T07:37:09.917Z,1.90
2023-03-12T07:42:12.416Z,1.70
2023-03-12T07:47:23.617Z,3.00
2023-03-12T07:52:26.633Z,5.30
2023-03-12T07:57:28.728Z,3.60
2023-03-12T08:02:30.693Z,2.90
2023-03-12T08:07:34.698Z,1.50
2023-03-12T08:12:37.330Z,2.60
2023-03-12T08:17:40.397Z,3.00
2023-03-12T08:22:42.185Z,3.70
2023-03-12T08:27:44.030Z,3.50
2023-03-12T08:32:46.550Z,2.60
2023-03-12T08:37:48.431Z,4.00
2023-03-12T08:42:50.279Z,1.50
2023-03-12T08:47:52.262Z,2.70
2023-03-12T08:52:54.025Z,2.10
2023-03-12T08:57:57.134Z,2.20
2023-03-12T09:02:59.144Z,1.40
2023-03-12T09:08:00.991Z,4.00
2023-03-12T09:13:04.338Z,2.30
2023-03-12T09:18:06.188Z,4.80
2023-03-12T09:23:07.972Z,4.30
2023-03-12T09:28:09.933Z,2.40
2023-03-12T09:33:14.609Z,1.30
2023-03-12T09:38:16.346Z,1.30
2023-03-12T09:43:37.070Z,5.40
2023-03-12T09:48:40.171Z,4.10
2023-03-12T09:53:48.753Z,3.40
2023-03-12T09:58:54.167Z,2.60
2023-03-12T10:04:14.329Z,1.90
2023-03-12T10:09:34.196Z,3.40
2023-03-12T10:15:25.924Z,2.30
2023-03-12T10:20:51.161Z,1.90
2023-03-12T10:26:17.921Z,1.30
2023-03-12T10:31:30.725Z,3.40
2023-03-12T10:36:41.019Z,5.00
2023-03-12T10:41:46.596Z,1.80
2023-03-12T10:47:33.223Z,7.80
2023-03-12T10:52:35.063Z,2.30
2023-03-12T10:57:42.108Z,4.70
2023-03-12T11:02:48.245Z,2.60
2023-03-12T11:07:50.929Z,4.70
2023-03-12T11:13:02.244Z,2.60
2023-03-12T11:18:31.739Z,1.10
2023-03-12T11:23:34.335Z,2.30
2023-03-12T11:28:45.940Z,3.20
2023-03-12T11:33:48.176Z,1.60
2023-03-12T11:39:06.476Z,1.80
2023-03-12T11:44:38.676Z,2.10
2023-03-12T11:50:08.753Z,6.00
2023-03-12T11:55:25.997Z,4.10
2023-03-12T12:00:51.234Z,1.80
2023-03-12T12:06:43.306Z,0.70
2023-03-12T12:12:06.144Z,1.40
2023-03-12T12:17:23.694Z,1.50
2023-03-12T12:22:42.564Z,4.20
2023-03-12T12:27:59.907Z,2.20
2023-03-12T12:33:35.790Z,2.00
2023-03-12T12:38:46.869Z,2.30
2023-03-12T12:43:57.662Z,1.00
2023-03-12T12:49:23.409Z,4.80
2023-03-12T12:54:44.433Z,2.90
2023-03-12T13:00:10.677Z,2.90
2023-03-12T13:05:36.421Z,1.60
2023-03-12T13:10:48.775Z,3.20
2023-03-12T13:16:42.223Z,2.50
2023-03-12T13:22:16.978Z,1.90
2023-03-12T13:27:45.808Z,2.80
2023-03-12T13:37:52.213Z,2.70
2023-03-12T13:43:09.435Z,5.10
2023-03-12T13:48:17.665Z,3.10
2023-03-12T13:53:46.783Z,5.50
2023-03-12T13:59:02.171Z,2.90
2023-03-12T14:04:11.825Z,4.20
2023-03-12T14:09:40.457Z,7.40
2023-03-12T14:15:06.996Z,3.00
2023-03-12T14:20:22.610Z,3.00
2023-03-12T14:25:43.165Z,4.10
2023-03-12T14:31:12.383Z,4.20
2023-03-12T14:36:27.511Z,2.30
2023-03-12T14:41:35.066Z,6.50
2023-03-12T14:46:36.867Z,1.30
2023-03-12T14:51:39.565Z,5.60
2023-03-12T14:56:44.176Z,11.60
2023-03-12T15:01:47.912Z,10.40
2023-03-12T15:06:58.535Z,19.60
2023-03-12T15:12:28.883Z,7.60
2023-03-12T15:17:31.893Z,4.00
2023-03-12T15:22:35.711Z,3.30
2023-03-12T15:27:37.486Z,4.30
2023-03-12T15:32:39.597Z,6.00
2023-03-12T15:37:52.812Z,5.70
2023-03-12T15:43:01.339Z,4.70
2023-03-12T15:48:24.770Z,3.80
2023-03-12T15:53:31.715Z,1.20
2023-03-12T15:58:38.621Z,2.80
2023-03-12T16:03:44.908Z,2.80
2023-03-12T16:08:58.250Z,23.70
2023-03-12T16:14:17.134Z,29.60
2023-03-12T16:19:22.907Z,8.80
2023-03-12T16:24:24.778Z,10.10
2023-03-12T16:29:37.716Z,16.90
2023-03-12T16:34:40.105Z,21.60
2023-03-12T16:39:45.961Z,41.50
2023-03-12T16:44:48.268Z,22.30
2023-03-12T16:49:50.546Z,22.60
2023-03-12T16:54:52.721Z,32.10
2023-03-12T16:59:54.814Z,39.70
2023-03-12T17:04:56.885Z,42.50
2023-03-12T17:09:58.884Z,50.40
2023-03-12T17:15:04.560Z,40.00
2023-03-12T17:20:09.694Z,47.60
2023-03-12T17:25:28.323Z,60.60
2023-03-12T17:30:31.461Z,77.90
2023-03-12T17:35:34.807Z,100.70
2023-03-12T17:40:42.555Z,87.60
2023-03-12T17:45:44.467Z,120.50
2023-03-12T17:50:46.349Z,115.00
2023-03-12T17:55:48.448Z,110.30
2023-03-12T18:00:50.312Z,110.60
2023-03-12T18:05:52.287Z,163.90
2023-03-12T18:10:54.886Z,157.50
2023-03-12T18:15:59.991Z,105.30
2023-03-12T18:21:01.812Z,105.40
2023-03-12T18:26:05.038Z,144.90
2023-03-12T18:31:06.751Z,103.90
2023-03-12T18:36:09.297Z,125.60
2023-03-12T18:41:13.418Z,121.20
2023-03-12T18:46:15.434Z,105.10
2023-03-12T18:51:17.693Z,108.30
2023-03-12T18:56:19.506Z,132.10
2023-03-12T19:01:21.456Z,150.50
2023-03-12T19:06:23.375Z,155.30
2023-03-12T19:11:26.021Z,164.50
2023-03-12T19:16:28.995Z,178.20
2023-03-12T19:21:31.008Z,180.80
2023-03-12T19:26:33.205Z,184.50
2023-03-12T19:31:35.074Z,145.30
2023-03-12T19:36:37.059Z,101.40
2023-03-12T19:41:40.372Z,121.90
2023-03-12T19:46:42.847Z,68.10
2023-03-12T19:51:44.726Z,71.80
2023-03-12T19:56:46.495Z,143.20
2023-03-12T20:01:48.410Z,168.50
2023-03-12T20:06:50.464Z,178.40
2023-03-12T20:11:52.351Z,217.30
2023-03-12T20:16:54.206Z,188.60
2023-03-12T20:21:56.799Z,179.70
2023-03-12T20:26:58.572Z,159.90
2023-03-12T20:32:00.575Z,185.30
2023-03-12T20:37:02.534Z,130.60
2023-03-12T20:42:04.619Z,68.40
2023-03-12T20:47:06.501Z,37.70
2023-03-12T20:52:08.377Z,39.60
2023-03-12T20:57:10.151Z,35.10
2023-03-12T21:02:14.480Z,17.80
2023-03-12T21:07:16.475Z,27.80
2023-03-12T21:12:18.469Z,16.00
2023-03-12T21:17:20.324Z,31.90
2023-03-12T21:22:22.103Z,52.70
2023-03-12T21:27:24.544Z,39.90
2023-03-12T21:32:27.077Z,47.50
2023-03-12T21:37:28.860Z,51.40
2023-03-12T21:42:33.093Z,132.90
2023-03-12T21:47:39.184Z,147.20
2023-03-12T21:52:47.087Z,134.40
2023-03-12T21:57:48.764Z,73.10
2023-03-12T22:02:53.295Z,63.30
2023-03-12T22:07:55.278Z,59.20
2023-03-12T22:12:56.955Z,35.10
2023-03-12T22:17:58.722Z,28.50
2023-03-12T22:23:00.942Z,39.00
2023-03-12T22:28:02.785Z,41.10
2023-03-12T22:33:04.594Z,36.90
2023-03-12T22:38:06.235Z,53.30
2023-03-12T22:43:08.636Z,41.40
2023-03-12T22:48:10.409Z,34.10
2023-03-12T22:53:12.170Z,65.30
2023-03-12T22:58:14.658Z,54.60
2023-03-12T23:03:16.336Z,64.00
2023-03-12T23:08:18.131Z,91.20
2023-03-12T23:13:20.909Z,78.70
2023-03-12T23:18:22.592Z,52.70
2023-03-12T23:23:24.356Z,42.60
2023-03-12T23:28:29.256Z,33.90
2023-03-12T23:33:33.512Z,49.70
2023-03-12T23:38:37.669Z,45.90
2023-03-12T23:43:40.160Z,55.30
2023-03-12T23:48:43.478Z,46.20
2023-03-12T23:53:48.336Z,48.50
2023-03-12T23:58:51.042Z,48.30
